Boston, Massachusetts
Traffic Map
Current Weather Conditions
Boston, Massachusetts
Overcast Light Snow
Overcast
20°
Feels Like: 9°
Wind Chill: Ceiling: 4700
Heat Index: 20° Visibility: 7mi
Dew Point: 16° Wind: 9mph
Humidity: 85% Direction: 330° (NNW)
Pressure: 29.77in Gusts: 0mph
Raw Report DataKBOS 090554Z 33008KT 7SM -SN FEW014 OVC047 M07/M09 A2977 RMK AO2 SLP081 P0000 60004 T10671089 11061 21067 58009 $
Traffic Incident Summary
Active as of:
Severity:
Category:
InformationThere was an issue retrieving the traffic information for this location. Please try a different location or try again shortly.
Advertisements
Track Severe Weather on mobile